Ossian — WDF2623 — position and weather

sailwx.info

Track history (hours):
 
Tides and Currents Weather Stations Pressure Air Temp Water Temp Dewpoint Dewpoint Depression Visibility Wind Speed Wind Dir Waves Ship Positions

Ossian

Owner: Hartzell, Scott R, Florence, OR. More information available from US FCC via Universal Licensing System and Coast Guard Vessel Documentation Center.

Last reported at 2017-Jun-07 20:09 UTC. Time now 2017-Jun-28 01:53 UTC.
Position N 43°11' W 124°59'.
Warning: this ship's position is 20 days out of date.

Length 26 m.

Type: Fishing. MMSI: 366773410.

Date/timePositionNaut miles runAvg speedWind from/ knotsBaromVisibWave heightAir tempDewpointWater temp
2017-Jun-07 20:09N 43°11' W 124°59'1 4.3
2017-Jun-07 19:58N 43°10' W 124°59'2 3.5
2017-Jun-07 19:30N 43°11' W 124°60'5 2.9
2017-Jun-07 17:43N 43°17' W 125°01'0 0.3
2017-Jun-07 17:30N 43°17' W 125°01'0 0.6
2017-Jun-07 16:49N 43°16' W 125°01'0 0.7
2017-Jun-07 16:30N 43°16' W 125°01'1 1.0
2017-Jun-07 15:44N 43°15' W 125°02'2 4.8
2017-Jun-07 15:22N 43°17' W 125°02'3 5.5
2017-Jun-07 14:54N 43°20' W 125°03'0 0.4
2017-Jun-07 13:59N 43°19' W 125°03'1 0.9
2017-Jun-07 13:24N 43°19' W 125°03'0 1.1
2017-Jun-07 13:00N 43°18' W 125°03'3 4.3
2017-Jun-07 12:22N 43°17' W 125°00'3 7.3
2017-Jun-07 12:00N 43°16' W 124°57'1 3.0
2017-Jun-07 11:31N 43°15' W 124°55'0 0.8
2017-Jun-07 10:58N 43°16' W 124°55'0 0.8
2017-Jun-07 10:30N 43°16' W 124°55'0 0.7
2017-Jun-07 10:00N 43°17' W 124°55'0 0.8
2017-Jun-07 09:30N 43°17' W 124°55'1 0.7
2017-Jun-07 08:44N 43°18' W 124°55'0 0.8
2017-Jun-07 08:30N 43°18' W 124°55'0 0.9
2017-Jun-07 08:00N 43°18' W 124°55'1 0.9
2017-Jun-07 07:25N 43°19' W 124°55'5 8.3
2017-Jun-07 06:52N 43°20' W 124°49'3 8.1
2017-Jun-07 06:29N 43°20' W 124°45'11 8.0
2017-Jun-07 05:06N 43°22' W 124°30'3 7.7
2017-Jun-07 04:42N 43°22' W 124°25'4 7.6
2017-Jun-07 04:14N 43°21' W 124°20'8 3.0
2017-Jun-07 01:35N 43°19' W 124°31'14 0.6
2017-Jun-06 02:45N 43°25' W 124°49'2 9.2
2017-Jun-06 02:31N 43°26' W 124°46'  
Track history (hours):
 
Tides and Currents Weather Stations Pressure Air Temp Water Temp Dewpoint Dewpoint Depression Visibility Wind Speed Wind Dir Waves Ship Positions

Ossian

Owner: Hartzell, Scott R, Florence, OR. More information available from US FCC via Universal Licensing System and Coast Guard Vessel Documentation Center.

Last reported at 2017-Jun-07 20:09 UTC. Time now 2017-Jun-28 01:53 UTC.
Position N 43°11' W 124°59'.
Warning: this ship's position is 20 days out of date.

Length 26 m.

Type: Fishing. MMSI: 366773410.

Date/timePositionNaut miles runAvg speedWind from/ knotsBaromVisibWave heightAir tempDewpointWater temp
2017-Jun-07 20:09N 43°11' W 124°59'1 4.3
2017-Jun-07 19:58N 43°10' W 124°59'2 3.5
2017-Jun-07 19:30N 43°11' W 124°60'5 2.9
2017-Jun-07 17:43N 43°17' W 125°01'0 0.3
2017-Jun-07 17:30N 43°17' W 125°01'0 0.6
2017-Jun-07 16:49N 43°16' W 125°01'0 0.7
2017-Jun-07 16:30N 43°16' W 125°01'1 1.0
2017-Jun-07 15:44N 43°15' W 125°02'2 4.8
2017-Jun-07 15:22N 43°17' W 125°02'3 5.5
2017-Jun-07 14:54N 43°20' W 125°03'0 0.4
2017-Jun-07 13:59N 43°19' W 125°03'1 0.9
2017-Jun-07 13:24N 43°19' W 125°03'0 1.1
2017-Jun-07 13:00N 43°18' W 125°03'3 4.3
2017-Jun-07 12:22N 43°17' W 125°00'3 7.3
2017-Jun-07 12:00N 43°16' W 124°57'1 3.0
2017-Jun-07 11:31N 43°15' W 124°55'0 0.8
2017-Jun-07 10:58N 43°16' W 124°55'0 0.8
2017-Jun-07 10:30N 43°16' W 124°55'0 0.7
2017-Jun-07 10:00N 43°17' W 124°55'0 0.8
2017-Jun-07 09:30N 43°17' W 124°55'1 0.7
2017-Jun-07 08:44N 43°18' W 124°55'0 0.8
2017-Jun-07 08:30N 43°18' W 124°55'0 0.9
2017-Jun-07 08:00N 43°18' W 124°55'1 0.9
2017-Jun-07 07:25N 43°19' W 124°55'5 8.3
2017-Jun-07 06:52N 43°20' W 124°49'3 8.1
2017-Jun-07 06:29N 43°20' W 124°45'11 8.0
2017-Jun-07 05:06N 43°22' W 124°30'3 7.7
2017-Jun-07 04:42N 43°22' W 124°25'4 7.6
2017-Jun-07 04:14N 43°21' W 124°20'8 3.0
2017-Jun-07 01:35N 43°19' W 124°31'14 0.6
2017-Jun-06 02:45N 43°25' W 124°49'2 9.2
2017-Jun-06 02:31N 43°26' W 124°46'  

Dump ship's entire track history